Time;durP1;ratioP1;P1;durP2;ratioP2;P2;SDS_P1;SDS_P2;PMS_P1;PMS_P2;Temp;Humidity;BMP_temperature;BMP_pressure;BME280_temperature;BME280_humidity;BME280_pressure;Samples;Min_cycle;Max_cycle;Signal;HPM_P1;HPM_P2
2022/03/28 00:00:49;;;;;;;16.13;12.15;;;14.00;99.90;;;;;;4701165;30;20539;-79
2022/03/28 00:03:17;;;;;;;17.65;12.65;;;14.10;99.90;;;;;;4732717;30;20142;-79
2022/03/28 00:05:47;;;;;;;19.67;12.48;;;14.10;99.90;;;;;;4716725;30;20053;-78
2022/03/28 00:08:16;;;;;;;17.30;11.98;;;14.10;99.90;;;;;;4716621;30;20060;-78
2022/03/28 00:10:44;;;;;;;16.65;11.23;;;14.10;99.90;;;;;;4734853;30;20087;-78
2022/03/28 00:13:15;;;;;;;17.83;11.88;;;14.10;99.90;;;;;;4735457;30;20416;-78
2022/03/28 00:15:44;;;;;;;19.35;11.73;;;14.20;99.90;;;;;;4705574;30;20053;-79
2022/03/28 00:18:19;;;;;;;16.60;11.93;;;14.20;99.90;;;;;;4705261;30;20599;-79
2022/03/28 00:20:49;;;;;;;14.85;10.70;;;14.20;99.90;;;;;;4718352;30;20057;-78
2022/03/28 00:23:17;;;;;;;17.33;11.68;;;14.20;99.90;;;;;;4732421;30;20057;-79
2022/03/28 00:25:45;;;;;;;16.73;11.00;;;14.30;99.90;;;;;;4717878;30;20151;-78
2022/03/28 00:28:13;;;;;;;15.88;12.75;;;14.30;99.90;;;;;;4718452;30;20067;-77
2022/03/28 00:30:44;;;;;;;17.95;12.55;;;14.30;99.90;;;;;;4732625;30;20047;-78
2022/03/28 00:33:12;;;;;;;19.33;11.38;;;14.30;99.90;;;;;;4717104;30;20053;-77
2022/03/28 00:35:39;;;;;;;17.40;11.60;;;14.40;99.90;;;;;;4719985;30;20515;-77
2022/03/28 00:38:08;;;;;;;17.33;11.85;;;14.40;99.90;;;;;;4720056;30;20072;-78
2022/03/28 00:40:35;;;;;;;16.00;11.00;;;14.40;99.90;;;;;;4734846;30;20049;-77
2022/03/28 00:43:05;;;;;;;13.32;11.35;;;14.40;99.90;;;;;;4735977;30;20496;-78
2022/03/28 00:45:34;;;;;;;18.02;11.48;;;14.40;99.90;;;;;;4720664;30;20065;-78
2022/03/28 00:48:04;;;;;;;17.27;12.80;;;14.50;99.90;;;;;;4735702;30;20045;-78
2022/03/28 00:50:32;;;;;;;16.73;11.18;;;14.50;99.90;;;;;;4736024;30;20106;-78
2022/03/28 00:53:00;;;;;;;16.42;11.68;;;14.50;99.90;;;;;;4737008;30;20056;-78
2022/03/28 00:55:28;;;;;;;20.35;12.27;;;14.50;99.90;;;;;;4735830;30;20063;-77
2022/03/28 00:57:55;;;;;;;17.77;12.35;;;14.50;99.90;;;;;;4721624;30;20400;-78
2022/03/28 01:00:23;;;;;;;17.15;11.82;;;14.40;99.90;;;;;;4721321;30;20051;-78
2022/03/28 01:02:51;;;;;;;15.70;12.18;;;14.30;99.90;;;;;;4721375;30;20492;-78
2022/03/28 01:05:18;;;;;;;18.90;12.15;;;14.20;99.90;;;;;;4735853;30;20076;-78
2022/03/28 01:07:46;;;;;;;18.40;12.48;;;14.20;99.90;;;;;;4721416;30;20060;-78
2022/03/28 01:10:13;;;;;;;17.38;12.18;;;14.20;99.90;;;;;;4735568;30;20098;-78
2022/03/28 01:12:42;;;;;;;18.55;13.13;;;14.20;99.90;;;;;;4735615;30;20144;-78
2022/03/28 01:15:12;;;;;;;19.45;12.50;;;14.20;99.90;;;;;;4736431;30;20143;-78
2022/03/28 01:20:31;;;;;;;17.42;12.75;;;14.10;99.90;;;;;;4735645;30;20123;-78
2022/03/28 01:22:59;;;;;;;15.80;12.23;;;14.00;99.90;;;;;;4735575;30;20045;-78
2022/03/28 01:25:29;;;;;;;15.50;10.75;;;14.00;99.90;;;;;;4735324;30;20060;-78
2022/03/28 01:27:58;;;;;;;12.15;9.55;;;13.90;99.90;;;;;;4720841;30;20527;-78
2022/03/28 01:30:31;;;;;;;11.95;7.25;;;13.80;99.90;;;;;;4736482;30;20052;-77
2022/03/28 01:33:00;;;;;;;10.82;5.95;;;13.60;99.90;;;;;;4721008;30;20056;-78
2022/03/28 01:35:34;;;;;;;12.35;5.72;;;13.40;99.90;;;;;;4706425;30;20504;-78
2022/03/28 01:38:05;;;;;;;8.18;5.75;;;13.30;99.90;;;;;;4735015;30;20132;-78
2022/03/28 01:40:36;;;;;;;11.65;5.28;;;13.20;99.90;;;;;;4720775;30;20083;-78
2022/03/28 01:43:04;;;;;;;10.50;4.88;;;13.10;99.90;;;;;;4736326;30;20071;-77
2022/03/28 01:45:31;;;;;;;7.07;4.40;;;13.10;99.90;;;;;;4736183;30;20059;-78
2022/03/28 01:47:59;;;;;;;12.13;5.90;;;13.10;99.90;;;;;;4720294;30;20055;-78
2022/03/28 01:50:27;;;;;;;9.32;6.93;;;13.30;99.90;;;;;;4705964;30;20049;-78
2022/03/28 01:52:54;;;;;;;7.43;6.00;;;13.10;99.90;;;;;;4720497;30;20053;-77
2022/03/28 01:55:23;;;;;;;7.88;6.45;;;13.00;99.90;;;;;;4736027;30;20448;-78
2022/03/28 01:57:52;;;;;;;7.70;5.38;;;13.00;99.90;;;;;;4734843;30;20053;-78
2022/03/28 02:00:23;;;;;;;8.40;5.45;;;13.10;99.90;;;;;;4720421;30;20409;-78
2022/03/28 02:02:51;;;;;;;13.95;9.15;;;13.20;99.90;;;;;;4734763;30;20102;-78
2022/03/28 02:05:19;;;;;;;12.93;7.03;;;13.20;99.90;;;;;;4706018;30;20072;-77
2022/03/28 02:07:48;;;;;;;11.80;8.60;;;13.10;99.90;;;;;;4720656;30;20064;-77
2022/03/28 02:10:18;;;;;;;9.98;7.60;;;13.00;99.90;;;;;;4705692;30;20068;-78
2022/03/28 02:12:47;;;;;;;10.18;7.50;;;12.90;99.90;;;;;;4734513;30;20076;-78
2022/03/28 02:15:16;;;;;;;10.88;7.88;;;12.80;99.90;;;;;;4705347;30;20147;-78
2022/03/28 02:17:43;;;;;;;16.17;8.75;;;12.70;99.90;;;;;;4734766;30;20151;-78
2022/03/28 02:20:12;;;;;;;11.63;7.32;;;12.80;99.90;;;;;;4719809;30;20060;-77
2022/03/28 02:22:41;;;;;;;14.43;7.40;;;12.80;99.90;;;;;;4734620;30;20135;-77
2022/03/28 02:25:10;;;;;;;13.93;8.02;;;12.90;99.90;;;;;;4735537;30;20056;-78
2022/03/28 02:27:38;;;;;;;11.77;7.47;;;12.90;99.90;;;;;;4735414;30;20094;-79
2022/03/28 02:30:08;;;;;;;9.05;6.78;;;12.90;99.90;;;;;;4735213;30;20049;-78
2022/03/28 02:32:37;;;;;;;13.35;7.20;;;13.00;99.90;;;;;;4735462;30;20079;-78
2022/03/28 02:35:06;;;;;;;8.70;6.70;;;12.90;99.90;;;;;;4734304;30;20049;-77
2022/03/28 02:37:34;;;;;;;8.43;6.15;;;12.80;99.90;;;;;;4705463;30;20419;-78
2022/03/28 02:40:02;;;;;;;10.23;6.85;;;12.90;99.90;;;;;;4705052;30;20055;-78
2022/03/28 02:42:29;;;;;;;10.15;7.25;;;12.80;99.90;;;;;;4734074;30;20045;-78
2022/03/28 02:44:57;;;;;;;13.27;7.50;;;12.80;99.90;;;;;;4735397;30;20056;-78
2022/03/28 02:47:25;;;;;;;9.82;7.32;;;12.80;99.90;;;;;;4734080;30;20053;-78
2022/03/28 02:49:53;;;;;;;12.73;7.10;;;12.80;99.90;;;;;;4734206;30;20056;-78
2022/03/28 02:52:22;;;;;;;11.15;6.80;;;12.70;99.90;;;;;;4733761;30;20106;-78
2022/03/28 02:54:50;;;;;;;11.35;7.35;;;12.70;99.90;;;;;;4734938;30;20090;-79
2022/03/28 02:57:17;;;;;;;15.02;7.15;;;12.70;99.90;;;;;;4733506;30;20064;-78
2022/03/28 02:59:45;;;;;;;10.18;6.95;;;12.60;99.90;;;;;;4734152;30;20144;-78
2022/03/28 03:02:12;;;;;;;12.75;7.00;;;12.60;99.90;;;;;;4734938;30;20048;-78
2022/03/28 03:04:40;;;;;;;12.85;7.57;;;12.70;99.90;;;;;;4719223;30;20045;-78
2022/03/28 03:07:08;;;;;;;9.60;6.35;;;12.60;99.90;;;;;;4719138;30;20087;-78
2022/03/28 03:09:36;;;;;;;12.77;7.13;;;12.50;99.90;;;;;;4719159;30;20126;-78
2022/03/28 03:12:04;;;;;;;9.05;5.75;;;12.60;99.90;;;;;;4733546;30;20040;-78
2022/03/28 03:14:31;;;;;;;9.05;6.85;;;12.70;99.90;;;;;;4733316;30;20056;-78
2022/03/28 03:16:59;;;;;;;9.82;5.95;;;12.60;99.90;;;;;;4733866;30;20060;-78
2022/03/28 03:19:26;;;;;;;10.20;6.40;;;12.60;99.90;;;;;;4719312;30;20531;-78
2022/03/28 03:21:54;;;;;;;11.60;6.30;;;12.50;99.90;;;;;;4733582;30;20055;-78
2022/03/28 03:24:21;;;;;;;7.97;6.38;;;12.60;99.90;;;;;;4734509;30;20152;-79
2022/03/28 03:26:49;;;;;;;10.27;5.70;;;12.60;99.90;;;;;;4734616;30;20048;-78
2022/03/28 03:29:17;;;;;;;9.48;5.43;;;12.60;99.90;;;;;;4719350;30;20155;-78
2022/03/28 03:31:44;;;;;;;14.25;7.32;;;12.60;99.90;;;;;;4734721;30;20561;-79
2022/03/28 03:34:12;;;;;;;11.55;7.38;;;12.60;99.90;;;;;;4734331;30;20048;-78
2022/03/28 03:36:39;;;;;;;8.90;5.75;;;12.70;99.90;;;;;;4718790;30;20504;-78
2022/03/28 03:39:07;;;;;;;10.80;6.07;;;12.70;99.90;;;;;;4734425;30;20045;-78
2022/03/28 03:41:34;;;;;;;8.70;6.95;;;12.70;99.90;;;;;;4733633;30;20520;-79
2022/03/28 03:44:02;;;;;;;8.02;5.68;;;12.70;99.90;;;;;;4718463;30;20048;-78
2022/03/28 03:46:30;;;;;;;8.57;4.90;;;12.60;99.90;;;;;;4734496;30;20052;-78
2022/03/28 03:49:01;;;;;;;12.40;5.85;;;12.60;99.90;;;;;;4733298;30;20586;-78
2022/03/28 03:51:28;;;;;;;8.27;5.10;;;12.70;99.90;;;;;;4718791;30;20051;-77
2022/03/28 03:53:56;;;;;;;8.63;4.30;;;12.60;99.90;;;;;;4732928;30;20075;-78
2022/03/28 03:56:23;;;;;;;8.90;4.43;;;12.70;99.90;;;;;;4734348;30;20045;-78
2022/03/28 03:58:51;;;;;;;7.47;3.53;;;12.70;99.90;;;;;;4734353;30;20167;-78
2022/03/28 04:01:20;;;;;;;7.65;3.55;;;12.70;99.90;;;;;;4718665;30;20056;-78
2022/03/28 04:03:47;;;;;;;8.43;3.78;;;12.70;99.90;;;;;;4734220;30;20059;-78
2022/03/28 04:06:15;;;;;;;6.93;3.60;;;12.80;99.90;;;;;;4732779;30;20485;-78
2022/03/28 04:08:43;;;;;;;6.80;3.60;;;12.80;99.90;;;;;;4705473;30;20053;-78
2022/03/28 04:11:10;;;;;;;6.28;3.72;;;12.90;99.90;;;;;;4722387;30;20515;-78
2022/03/28 04:13:38;;;;;;;6.40;3.60;;;12.90;99.90;;;;;;4722049;30;20184;-79
2022/03/28 04:16:06;;;;;;;6.80;4.00;;;13.00;99.90;;;;;;4721625;30;20069;-78
2022/03/28 04:18:35;;;;;;;5.55;3.13;;;13.10;99.90;;;;;;4722019;30;20056;-79
2022/03/28 04:21:03;;;;;;;10.30;3.70;;;13.10;99.90;;;;;;4736711;30;20087;-78
2022/03/28 04:23:30;;;;;;;5.35;3.45;;;13.10;99.90;;;;;;4722068;30;20057;-78
2022/03/28 04:25:58;;;;;;;9.15;4.25;;;13.10;99.90;;;;;;4736341;30;20456;-78
2022/03/28 04:28:25;;;;;;;6.30;3.08;;;13.20;99.90;;;;;;4722040;30;20084;-79
2022/03/28 04:30:53;;;;;;;5.28;3.30;;;13.10;99.90;;;;;;4737388;30;20492;-78
2022/03/28 04:33:20;;;;;;;6.80;3.40;;;13.10;99.90;;;;;;4736550;30;20057;-78
2022/03/28 04:35:48;;;;;;;6.22;3.17;;;13.20;99.90;;;;;;4721856;30;20053;-78
2022/03/28 04:38:15;;;;;;;5.65;3.30;;;13.20;99.90;;;;;;4736037;30;20053;-79
2022/03/28 04:40:43;;;;;;;5.55;2.90;;;13.20;99.90;;;;;;4737240;30;20151;-78
2022/03/28 04:43:10;;;;;;;6.47;3.33;;;13.20;99.90;;;;;;4736041;30;20052;-78
2022/03/28 04:45:38;;;;;;;6.95;3.95;;;13.20;99.90;;;;;;4721578;30;20059;-78
2022/03/28 04:48:06;;;;;;;4.47;3.00;;;13.20;99.90;;;;;;4737264;30;20060;-78
2022/03/28 04:50:33;;;;;;;8.23;3.55;;;13.30;99.90;;;;;;4737125;30;20048;-78
2022/03/28 04:53:01;;;;;;;7.38;3.83;;;13.30;99.90;;;;;;4735880;30;20063;-78
2022/03/28 04:55:31;;;;;;;6.82;2.97;;;13.30;99.90;;;;;;4736925;30;20057;-78
2022/03/28 04:57:59;;;;;;;17.75;4.55;;;13.30;99.90;;;;;;4721053;30;20107;-79
2022/03/28 05:00:29;;;;;;;5.97;3.10;;;13.30;99.90;;;;;;4737115;30;20060;-78
2022/03/28 05:02:57;;;;;;;5.72;3.17;;;13.10;99.90;;;;;;4735738;30;20056;-79
2022/03/28 05:05:25;;;;;;;8.60;4.35;;;12.90;99.90;;;;;;4735928;30;20061;-78
2022/03/28 05:07:52;;;;;;;6.07;3.80;;;12.80;99.90;;;;;;4721679;30;20114;-78
2022/03/28 05:10:20;;;;;;;4.63;3.03;;;12.80;99.90;;;;;;4736986;30;20834;-78
2022/03/28 05:12:47;;;;;;;7.20;3.78;;;12.90;99.90;;;;;;4736742;30;20436;-79
2022/03/28 05:15:15;;;;;;;4.72;2.80;;;12.90;99.90;;;;;;4736542;30;20075;-78
2022/03/28 05:17:43;;;;;;;7.05;2.95;;;12.90;99.90;;;;;;4720981;30;20508;-78
2022/03/28 05:20:11;;;;;;;4.43;2.63;;;12.90;99.90;;;;;;4720689;30;20060;-78
2022/03/28 05:22:45;;;;;;;6.90;2.70;;;13.00;99.90;;;;;;4735394;30;20060;-78
2022/03/28 05:25:12;;;;;;;6.82;3.10;;;13.00;99.90;;;;;;4735458;30;20149;-78
2022/03/28 05:27:47;;;;;;;5.65;2.90;;;13.00;99.90;;;;;;4736553;30;20412;-78
2022/03/28 05:30:17;;;;;;;7.82;2.90;;;13.00;99.90;;;;;;4735442;30;20045;-78
2022/03/28 05:32:45;;;;;;;5.28;3.63;;;13.00;99.90;;;;;;4721179;30;20057;-78
2022/03/28 05:35:13;;;;;;;8.02;5.10;;;13.00;99.90;;;;;;4735217;30;20044;-78
2022/03/28 05:37:44;;;;;;;6.00;3.33;;;13.00;99.90;;;;;;4735403;30;20052;-78
2022/03/28 05:40:11;;;;;;;6.00;3.10;;;13.00;99.90;;;;;;4720894;30;20542;-78
2022/03/28 05:42:40;;;;;;;10.48;2.97;;;13.10;99.90;;;;;;4735120;30;20191;-78
2022/03/28 05:45:10;;;;;;;5.38;2.58;;;13.10;99.90;;;;;;4735101;30;20079;-78
2022/03/28 05:47:38;;;;;;;5.03;2.53;;;13.10;99.90;;;;;;4720698;30;20048;-77
2022/03/28 05:50:06;;;;;;;4.57;2.90;;;13.20;99.90;;;;;;4734781;30;20059;-78
2022/03/28 05:52:34;;;;;;;10.65;4.38;;;13.20;99.90;;;;;;4736053;30;20455;-78
2022/03/28 05:55:01;;;;;;;9.60;4.40;;;13.20;99.90;;;;;;4735041;30;20064;-78
2022/03/28 05:57:29;;;;;;;8.82;3.75;;;13.30;99.90;;;;;;4734804;30;20090;-78
2022/03/28 05:59:57;;;;;;;7.05;3.70;;;13.40;99.90;;;;;;4734650;30;20416;-78
2022/03/28 06:02:25;;;;;;;7.45;3.92;;;13.50;99.90;;;;;;4720370;30;20071;-78
2022/03/28 06:04:54;;;;;;;7.03;4.35;;;13.50;99.90;;;;;;4720409;30;20053;-78
2022/03/28 06:07:21;;;;;;;5.05;3.38;;;13.70;99.90;;;;;;4735124;30;20052;-77
2022/03/28 06:09:49;;;;;;;8.52;4.05;;;13.90;99.90;;;;;;4735972;30;20135;-77
2022/03/28 06:12:16;;;;;;;6.22;3.00;;;14.00;99.90;;;;;;4720099;30;20048;-78
2022/03/28 06:14:44;;;;;;;7.30;3.72;;;14.30;99.90;;;;;;4720359;30;20060;-78
2022/03/28 06:17:25;;;;;;;6.80;2.53;;;14.50;99.90;;;;;;4720210;30;20103;-78
2022/03/28 06:19:53;;;;;;;10.55;3.72;;;14.60;99.90;;;;;;4735021;30;20065;-79
2022/03/28 06:22:21;;;;;;;5.90;3.63;;;14.60;99.90;;;;;;4720306;30;20068;-77
2022/03/28 06:24:48;;;;;;;5.95;2.75;;;14.60;99.90;;;;;;4734969;30;20060;-78
2022/03/28 06:27:16;;;;;;;8.80;2.53;;;14.60;99.90;;;;;;4736009;30;20078;-78
2022/03/28 06:29:43;;;;;;;10.27;3.80;;;14.70;99.90;;;;;;4720411;30;20080;-78
2022/03/28 06:32:11;;;;;;;5.22;2.55;;;14.90;99.90;;;;;;4733755;30;20056;-77
2022/03/28 06:34:39;;;;;;;4.57;2.47;;;15.00;99.90;;;;;;4735576;30;20501;-77
2022/03/28 06:37:07;;;;;;;6.63;2.72;;;15.20;99.90;;;;;;4735857;30;20087;-78
2022/03/28 06:39:35;;;;;;;5.65;2.60;;;15.30;99.90;;;;;;4734867;30;20055;-77
2022/03/28 06:42:03;;;;;;;5.68;2.83;;;15.30;99.90;;;;;;4705431;30;20106;-77
2022/03/28 06:44:31;;;;;;;6.22;2.80;;;15.30;99.90;;;;;;4735540;30;20054;-77
2022/03/28 06:46:58;;;;;;;4.85;2.70;;;15.30;99.90;;;;;;4734623;30;20060;-76
2022/03/28 06:49:28;;;;;;;6.32;2.70;;;15.30;99.90;;;;;;4719990;30;20084;-77
2022/03/28 06:51:56;;;;;;;6.45;2.00;;;15.40;99.90;;;;;;4719937;30;20100;-79
2022/03/28 06:54:24;;;;;;;8.45;2.30;;;15.20;99.90;;;;;;4734470;30;20099;-76
2022/03/28 06:56:51;;;;;;;5.85;2.40;;;15.30;99.90;;;;;;4719666;30;20526;-78
2022/03/28 06:59:20;;;;;;;9.93;3.45;;;15.20;99.90;;;;;;4735421;30;20131;-77
2022/03/28 07:01:47;;;;;;;8.60;3.22;;;15.30;99.90;;;;;;4719843;30;20095;-77
2022/03/28 07:04:15;;;;;;;12.55;4.78;;;15.40;99.90;;;;;;4734978;30;20056;-77
2022/03/28 07:06:42;;;;;;;14.10;5.45;;;15.50;99.90;;;;;;4719857;30;20047;-77
2022/03/28 07:09:10;;;;;;;9.57;3.50;;;15.50;99.90;;;;;;4734188;30;20056;-77
2022/03/28 07:11:37;;;;;;;5.85;3.10;;;15.60;99.90;;;;;;4719807;30;20191;-77
2022/03/28 07:14:05;;;;;;;5.30;3.00;;;15.70;99.90;;;;;;4719049;30;20064;-77
2022/03/28 07:16:34;;;;;;;7.78;2.40;;;15.80;99.90;;;;;;4733850;30;20049;-77
2022/03/28 07:19:01;;;;;;;7.50;2.42;;;15.80;99.90;;;;;;4719469;30;20047;-77
2022/03/28 07:21:31;;;;;;;5.45;2.33;;;15.80;99.90;;;;;;4734229;30;20067;-77
2022/03/28 07:24:00;;;;;;;5.88;2.42;;;15.90;99.90;;;;;;4719346;30;20135;-77
2022/03/28 07:26:28;;;;;;;4.22;2.53;;;16.10;99.90;;;;;;4733838;30;20052;-77
2022/03/28 07:29:00;;;;;;;7.22;3.53;;;16.20;99.90;;;;;;4734951;30;20102;-77
2022/03/28 07:31:28;;;;;;;5.72;2.25;;;16.30;99.90;;;;;;4734296;30;20060;-77
2022/03/28 07:34:29;;;;;;;6.70;2.38;;;16.60;99.90;;;;;;4705093;30;20061;-79
2022/03/28 07:36:43;;;;;;;7.82;2.30;;;16.90;99.60;;;;;;4734848;30;20041;-76
2022/03/28 07:39:11;;;;;;;6.80;2.50;;;17.20;99.30;;;;;;4734927;30;20106;-77
2022/03/28 07:41:39;;;;;;;6.40;2.30;;;17.40;98.60;;;;;;4704793;30;20061;-77
2022/03/28 07:44:06;;;;;;;6.80;2.28;;;17.60;98.30;;;;;;4733335;30;20052;-77
2022/03/28 07:46:34;;;;;;;6.20;3.35;;;17.70;98.00;;;;;;4719140;30;20095;-74
2022/03/28 07:49:02;;;;;;;36.85;7.70;;;17.60;97.40;;;;;;4717841;30;20048;-74
2022/03/28 07:51:30;;;;;;;40.83;6.90;;;17.60;97.30;;;;;;4734587;30;20040;-73
2022/03/28 07:53:57;;;;;;;41.90;8.15;;;17.60;96.90;;;;;;4740229;30;20463;-74
2022/03/28 07:56:25;;;;;;;37.40;7.60;;;17.40;96.90;;;;;;4729057;30;20053;-74
2022/03/28 07:58:53;;;;;;;18.70;5.00;;;17.40;97.00;;;;;;4713705;30;20091;-77
2022/03/28 08:01:20;;;;;;;11.98;3.95;;;17.40;97.30;;;;;;4710350;30;20052;-74
2022/03/28 08:03:48;;;;;;;12.20;3.53;;;17.20;97.50;;;;;;4734971;30;20155;-74
2022/03/28 08:06:16;;;;;;;8.30;2.95;;;17.20;97.20;;;;;;4724986;30;20118;-75
2022/03/28 08:08:43;;;;;;;9.13;2.42;;;17.20;96.90;;;;;;4732434;30;20068;-73
2022/03/28 08:11:11;;;;;;;7.38;2.92;;;17.10;97.30;;;;;;4730052;30;20656;-74
2022/03/28 08:13:38;;;;;;;4.90;2.45;;;17.10;97.30;;;;;;4738451;30;20122;-74
2022/03/28 08:16:08;;;;;;;4.88;2.10;;;17.20;97.20;;;;;;4732262;30;20139;-75
2022/03/28 08:18:39;;;;;;;8.23;2.58;;;17.30;97.40;;;;;;4718520;30;20107;-74
2022/03/28 08:21:06;;;;;;;4.32;2.00;;;17.40;97.60;;;;;;4708040;30;20057;-74
2022/03/28 08:23:34;;;;;;;5.63;2.00;;;17.50;96.30;;;;;;4744494;30;20141;-75
2022/03/28 08:26:04;;;;;;;4.55;2.45;;;17.50;95.90;;;;;;4736157;30;20052;-76
2022/03/28 08:28:33;;;;;;;5.60;2.83;;;17.70;96.10;;;;;;4750915;30;20052;-75
2022/03/28 08:31:00;;;;;;;7.00;2.72;;;17.80;95.70;;;;;;4750189;30;20624;-76
2022/03/28 08:33:28;;;;;;;5.45;2.53;;;18.00;95.30;;;;;;4748302;30;20580;-76
2022/03/28 08:35:55;;;;;;;5.78;2.30;;;18.10;95.20;;;;;;4734643;30;20052;-74
2022/03/28 08:38:23;;;;;;;6.85;2.40;;;18.30;95.10;;;;;;4734416;30;20396;-75
2022/03/28 08:40:51;;;;;;;6.82;2.10;;;18.20;94.60;;;;;;4749625;30;20076;-76
2022/03/28 08:43:22;;;;;;;6.63;2.65;;;18.00;94.90;;;;;;4750704;30;20044;-76
2022/03/28 08:45:51;;;;;;;9.35;2.63;;;18.00;94.70;;;;;;4749376;30;20137;-75
2022/03/28 08:48:21;;;;;;;5.65;2.17;;;17.90;94.60;;;;;;4735152;30;20066;-76
2022/03/28 08:50:50;;;;;;;4.57;2.30;;;17.80;94.70;;;;;;4734811;30;20064;-76
2022/03/28 08:53:18;;;;;;;5.90;2.20;;;17.80;94.20;;;;;;4750117;30;20088;-76
2022/03/28 08:55:46;;;;;;;5.00;2.38;;;17.60;94.50;;;;;;4735737;30;20464;-75
2022/03/28 08:58:14;;;;;;;6.07;2.45;;;17.60;94.90;;;;;;4752385;30;20408;-75
2022/03/28 09:00:42;;;;;;;7.53;2.83;;;17.60;95.30;;;;;;4752471;30;20572;-75
2022/03/28 09:03:10;;;;;;;9.35;2.60;;;17.70;96.10;;;;;;4752491;30;20106;-74
2022/03/28 09:05:40;;;;;;;6.38;2.70;;;17.70;96.50;;;;;;4752862;30;20075;-75
2022/03/28 09:08:09;;;;;;;12.68;2.97;;;17.80;97.00;;;;;;4753562;30;20060;-74
2022/03/28 09:10:38;;;;;;;8.10;3.15;;;18.00;96.10;;;;;;4753092;30;20187;-75
2022/03/28 09:13:12;;;;;;;6.00;2.15;;;18.00;96.00;;;;;;4737551;30;20463;-75
2022/03/28 09:15:43;;;;;;;5.68;2.80;;;18.10;94.90;;;;;;4753803;30;20068;-75
2022/03/28 09:18:31;;;;;;;7.30;3.08;;;18.20;95.10;;;;;;4752586;30;20060;-76
2022/03/28 09:21:04;;;;;;;7.05;2.67;;;18.10;95.20;;;;;;4753160;30;20048;-76
2022/03/28 09:23:51;;;;;;;7.40;3.17;;;18.10;94.90;;;;;;4737984;30;20052;-75
2022/03/28 09:26:22;;;;;;;6.95;2.88;;;18.10;93.60;;;;;;4752251;30;20052;-75
2022/03/28 09:28:56;;;;;;;5.95;2.70;;;18.10;93.70;;;;;;4738553;30;20110;-75
2022/03/28 09:31:34;;;;;;;7.15;3.58;;;18.00;93.40;;;;;;4737608;30;20127;-77
2022/03/28 09:34:06;;;;;;;11.90;3.90;;;17.70;93.40;;;;;;4752501;30;20074;-76
2022/03/28 09:36:41;;;;;;;14.23;5.38;;;17.70;95.30;;;;;;4722911;30;20535;-76
2022/03/28 09:39:11;;;;;;;12.75;4.20;;;18.00;94.70;;;;;;4723039;30;20159;-81
2022/03/28 09:41:39;;;;;;;5.38;3.10;;;18.10;94.40;;;;;;4753368;30;20052;-81
2022/03/28 09:44:07;;;;;;;9.15;3.15;;;18.30;93.50;;;;;;4752264;30;20102;-76
2022/03/28 09:46:37;;;;;;;19.98;10.75;;;18.40;93.80;;;;;;4723077;30;20060;-76
2022/03/28 09:49:05;;;;;;;11.27;4.78;;;18.50;93.70;;;;;;4737173;30;20048;-75
2022/03/28 09:51:36;;;;;;;6.30;3.08;;;17.90;94.10;;;;;;4752414;30;20094;-75
2022/03/28 09:54:19;;;;;;;10.02;4.65;;;18.00;93.30;;;;;;4736076;30;20139;-75
2022/03/28 09:57:08;;;;;;;21.40;11.38;;;17.80;93.00;;;;;;4722215;30;20147;-75
2022/03/28 09:59:42;;;;;;;9.65;5.28;;;17.80;93.70;;;;;;4751989;30;20484;-74
2022/03/28 10:02:18;;;;;;;7.70;3.55;;;18.00;94.00;;;;;;4736293;30;20071;-76
2022/03/28 10:04:47;;;;;;;8.20;3.55;;;18.20;93.60;;;;;;4751001;30;20079;-75
2022/03/28 10:07:15;;;;;;;10.32;3.10;;;18.10;93.20;;;;;;4749970;30;20063;-75
2022/03/28 10:09:43;;;;;;;7.85;2.88;;;18.20;93.90;;;;;;4736178;30;20132;-75
2022/03/28 10:12:11;;;;;;;12.85;4.78;;;18.30;93.30;;;;;;4752122;30;20076;-75
2022/03/28 10:14:39;;;;;;;9.02;4.65;;;18.20;93.60;;;;;;4751320;30;20060;-76
2022/03/28 10:17:07;;;;;;;8.15;4.20;;;18.30;93.90;;;;;;4719461;30;20098;-73
2022/03/28 10:19:37;;;;;;;9.30;3.53;;;18.50;93.00;;;;;;4717625;30;20147;-80
2022/03/28 10:22:16;;;;;;;7.63;3.47;;;18.40;92.70;;;;;;4717843;30;20516;-75
2022/03/28 10:24:45;;;;;;;6.20;4.07;;;18.50;91.70;;;;;;4732695;30;20150;-75
2022/03/28 10:27:13;;;;;;;12.27;5.28;;;18.40;92.10;;;;;;4731876;30;20680;-76
2022/03/28 10:29:43;;;;;;;8.57;4.45;;;18.50;91.40;;;;;;4717783;30;20049;-76
2022/03/28 10:32:17;;;;;;;9.32;3.35;;;18.40;92.00;;;;;;4733197;30;20123;-76
2022/03/28 10:35:04;;;;;;;8.65;3.60;;;18.40;93.00;;;;;;4717751;30;20210;-76
2022/03/28 10:37:32;;;;;;;6.88;3.60;;;18.40;92.40;;;;;;4703257;30;20056;-77
2022/03/28 10:40:18;;;;;;;8.90;4.22;;;18.20;92.60;;;;;;4715824;30;20123;-78
2022/03/28 10:42:48;;;;;;;7.17;4.00;;;18.20;92.80;;;;;;4731881;30;20049;-75
2022/03/28 10:45:19;;;;;;;8.32;4.63;;;18.10;92.90;;;;;;4732375;30;20290;-75
2022/03/28 10:47:51;;;;;;;8.68;3.72;;;18.30;92.90;;;;;;4717290;30;20053;-75
2022/03/28 10:50:51;;;;;;;9.30;4.22;;;18.30;92.40;;;;;;4731010;30;20066;-77
2022/03/28 10:53:40;;;;;;;8.27;4.78;;;18.20;92.90;;;;;;4717249;30;20064;-75
2022/03/28 10:56:10;;;;;;;6.40;4.63;;;18.20;93.40;;;;;;4732151;30;20132;-76
2022/03/28 10:58:41;;;;;;;8.45;4.53;;;18.20;93.50;;;;;;4717848;30;20126;-76
2022/03/28 11:01:09;;;;;;;7.03;3.50;;;18.20;93.20;;;;;;4732733;30;20057;-75
2022/03/28 11:03:45;;;;;;;9.68;4.28;;;18.30;93.30;;;;;;4733615;30;20124;-76
2022/03/28 11:06:13;;;;;;;;;;;18.30;93.60;;;;;;4718095;30;20073;-76
2022/03/28 11:09:00;;;;;;;5.88;4.03;;;18.10;92.90;;;;;;4732602;30;19926;-76
2022/03/28 11:11:32;;;;;;;5.57;3.85;;;17.80;93.10;;;;;;4717519;30;20059;-76
2022/03/28 11:14:01;;;;;;;7.32;4.13;;;17.90;93.10;;;;;;4732633;30;20056;-76
2022/03/28 11:16:54;;;;;;;6.90;4.55;;;17.90;94.50;;;;;;4733206;30;20139;-76
2022/03/28 11:19:29;;;;;;;4.85;3.25;;;17.70;94.80;;;;;;4717462;30;20060;-76
2022/03/28 11:22:03;;;;;;;5.03;3.83;;;17.60;94.30;;;;;;4717396;30;20068;-76
2022/03/28 11:24:58;;;;;;;6.45;4.05;;;17.70;94.20;;;;;;4703194;30;20064;-76
2022/03/28 11:27:31;;;;;;;9.25;4.03;;;17.80;94.30;;;;;;4703047;30;20088;-77
2022/03/28 11:30:11;;;;;;;6.65;3.90;;;17.80;94.40;;;;;;4718263;30;20060;-77
2022/03/28 11:32:39;;;;;;;9.38;4.47;;;17.80;94.40;;;;;;4732214;30;20049;-78
2022/03/28 11:35:10;;;;;;;9.77;4.18;;;17.70;94.50;;;;;;4717779;30;20480;-80
2022/03/28 11:37:39;;;;;;;5.43;4.00;;;17.60;94.60;;;;;;4732156;30;20496;-77
2022/03/28 11:40:08;;;;;;;9.15;4.05;;;17.60;94.40;;;;;;4732108;30;20513;-78
2022/03/28 11:42:36;;;;;;;5.53;3.88;;;17.80;94.30;;;;;;4732190;30;20052;-77
2022/03/28 11:45:09;;;;;;;7.40;3.72;;;17.80;94.50;;;;;;4732055;30;20044;-76
2022/03/28 11:47:49;;;;;;;7.43;4.05;;;17.80;94.70;;;;;;4718043;30;20052;-76
2022/03/28 11:50:18;;;;;;;6.20;3.85;;;17.90;94.80;;;;;;4732158;30;20072;-76
2022/03/28 11:52:50;;;;;;;9.73;4.13;;;17.80;95.00;;;;;;4717052;30;20546;-77
2022/03/28 11:55:23;;;;;;;5.22;3.40;;;17.80;95.00;;;;;;4732110;30;20807;-76
2022/03/28 12:00:47;;;;;;;10.55;4.43;;;17.80;95.20;;;;;;4717350;30;20296;-77
2022/03/28 12:03:16;;;;;;;7.95;3.70;;;17.80;95.00;;;;;;4717109;30;20060;-76
2022/03/28 12:05:47;;;;;;;8.85;3.45;;;17.80;94.80;;;;;;4717213;30;20053;-76
2022/03/28 12:08:17;;;;;;;6.28;3.55;;;17.70;94.60;;;;;;4716989;30;20068;-77
2022/03/28 12:10:52;;;;;;;4.78;3.70;;;17.70;94.50;;;;;;4731897;30;20134;-77
2022/03/28 12:13:23;;;;;;;6.43;3.92;;;17.80;94.50;;;;;;4731918;30;20099;-78
2022/03/28 12:15:52;;;;;;;5.88;4.13;;;17.80;95.00;;;;;;4733748;30;20110;-78
2022/03/28 12:18:23;;;;;;;6.15;3.80;;;17.80;95.10;;;;;;4717182;30;20057;-76
2022/03/28 12:20:56;;;;;;;6.07;3.85;;;17.90;95.10;;;;;;4731749;30;20075;-77
2022/03/28 12:23:26;;;;;;;6.00;3.53;;;17.80;95.70;;;;;;4731466;30;20091;-79
2022/03/28 12:25:55;;;;;;;8.23;4.15;;;17.60;95.70;;;;;;4731107;30;20076;-80
2022/03/28 12:28:26;;;;;;;10.40;4.05;;;17.60;95.90;;;;;;4731467;30;20567;-77
2022/03/28 12:30:59;;;;;;;6.70;3.55;;;17.60;95.80;;;;;;4733982;30;20049;-79
2022/03/28 12:33:33;;;;;;;9.10;3.92;;;17.60;96.00;;;;;;4734831;30;20091;-78
2022/03/28 12:36:12;;;;;;;7.55;4.53;;;17.70;96.00;;;;;;4720685;30;20408;-74
2022/03/28 12:38:41;;;;;;;6.75;3.85;;;17.70;96.00;;;;;;4736248;30;20106;-76
2022/03/28 12:41:15;;;;;;;6.07;4.07;;;17.70;95.50;;;;;;4720141;30;20052;-77
2022/03/28 12:43:48;;;;;;;9.40;4.97;;;17.80;95.70;;;;;;4720158;30;20067;-76
2022/03/28 12:46:16;;;;;;;7.45;4.22;;;17.80;95.50;;;;;;4736679;30;20266;-75
2022/03/28 12:48:53;;;;;;;7.97;4.45;;;17.90;95.40;;;;;;4733883;30;20052;-76
2022/03/28 12:51:26;;;;;;;8.93;5.55;;;17.80;95.40;;;;;;4727450;30;20059;-75
2022/03/28 12:54:01;;;;;;;9.60;4.38;;;17.90;95.30;;;;;;4728978;30;20378;-75
2022/03/28 12:56:29;;;;;;;6.63;4.70;;;18.00;95.50;;;;;;4722922;30;20072;-75
2022/03/28 12:59:04;;;;;;;7.93;4.30;;;18.00;95.50;;;;;;4732533;30;20511;-76
2022/03/28 13:01:33;;;;;;;8.05;5.03;;;18.00;95.40;;;;;;4728353;30;20107;-76